createdAt,value
2017-10-03T00:00:19.756Z,0
2017-10-03T00:01:22.522Z,0
2017-10-03T00:02:24.950Z,0
2017-10-03T00:03:27.380Z,0
2017-10-03T00:04:29.805Z,0
2017-10-03T00:05:32.241Z,0
2017-10-03T00:06:34.669Z,0
2017-10-03T00:07:37.097Z,0
2017-10-03T00:08:39.540Z,0
2017-10-03T00:09:41.972Z,0
2017-10-03T00:10:44.404Z,0
2017-10-03T00:11:46.842Z,0
2017-10-03T00:12:49.273Z,0
2017-10-03T00:13:52.055Z,0
2017-10-03T00:14:54.485Z,0
2017-10-03T00:15:56.897Z,0
2017-10-03T00:16:59.343Z,0
2017-10-03T00:18:01.769Z,0
2017-10-03T00:19:04.200Z,0
2017-10-03T00:20:06.627Z,0
2017-10-03T00:21:09.078Z,0
2017-10-03T00:22:11.503Z,0
2017-10-03T00:23:13.924Z,0
2017-10-03T00:24:16.358Z,0
2017-10-03T00:25:18.786Z,0
2017-10-03T00:26:21.217Z,0
2017-10-03T00:27:23.655Z,0
2017-10-03T00:28:26.412Z,0
2017-10-03T00:29:28.845Z,0
2017-10-03T00:30:31.285Z,0
2017-10-03T00:31:33.716Z,0
2017-10-03T00:32:36.143Z,0
2017-10-03T00:33:38.577Z,0
2017-10-03T00:34:41.006Z,0
2017-10-03T00:35:43.441Z,0
2017-10-03T00:36:45.869Z,0
2017-10-03T00:37:48.298Z,0
2017-10-03T00:38:50.729Z,0
2017-10-03T00:39:53.155Z,0
2017-10-03T00:40:55.583Z,0
2017-10-03T00:41:58.018Z,0
2017-10-03T00:43:00.445Z,0
2017-10-03T00:44:02.874Z,0
2017-10-03T00:45:05.297Z,0
2017-10-03T00:46:07.738Z,0
2017-10-03T00:47:10.153Z,0
2017-10-03T00:48:12.585Z,0
2017-10-03T00:49:15.365Z,0
2017-10-03T00:50:17.792Z,0
2017-10-03T00:51:20.224Z,0
2017-10-03T00:52:22.646Z,0
2017-10-03T00:53:25.076Z,0
2017-10-03T00:54:27.512Z,0
2017-10-03T00:55:29.944Z,0
2017-10-03T00:56:32.362Z,0
2017-10-03T00:57:34.795Z,0
2017-10-03T00:58:37.232Z,0
2017-10-03T00:59:39.997Z,0
2017-10-03T01:00:42.434Z,0
2017-10-03T01:01:44.867Z,0
2017-10-03T01:02:47.293Z,0
2017-10-03T01:03:49.733Z,0
2017-10-03T01:04:52.164Z,0
2017-10-03T01:05:54.584Z,0
2017-10-03T01:06:57.019Z,0
2017-10-03T01:07:59.453Z,0
2017-10-03T01:09:01.878Z,0
2017-10-03T01:10:04.315Z,0
2017-10-03T01:11:06.753Z,0
2017-10-03T01:12:09.523Z,0
2017-10-03T01:13:11.971Z,0
2017-10-03T01:14:14.394Z,0
2017-10-03T01:15:16.831Z,0
2017-10-03T01:16:19.257Z,0
2017-10-03T01:17:21.694Z,0
2017-10-03T01:18:24.119Z,0
2017-10-03T01:19:26.550Z,0
2017-10-03T01:20:28.980Z,0
2017-10-03T01:21:31.413Z,0
2017-10-03T01:22:33.838Z,0
2017-10-03T01:23:36.270Z,0
2017-10-03T01:24:38.696Z,0
2017-10-03T01:25:41.126Z,0
2017-10-03T01:26:43.894Z,0
2017-10-03T01:27:46.329Z,0
2017-10-03T01:28:48.754Z,0
2017-10-03T01:29:51.541Z,0
2017-10-03T01:30:53.964Z,0
2017-10-03T01:31:56.404Z,0
2017-10-03T01:32:58.838Z,0
2017-10-03T01:34:01.272Z,0
2017-10-03T01:35:03.703Z,0
2017-10-03T01:36:06.472Z,0
2017-10-03T01:37:08.896Z,0
2017-10-03T01:38:12.039Z,0
2017-10-03T01:39:14.456Z,0
2017-10-03T01:40:16.886Z,0
2017-10-03T01:41:19.316Z,0
2017-10-03T01:42:21.754Z,0
2017-10-03T01:43:24.184Z,0
2017-10-03T01:44:26.605Z,0
2017-10-03T01:45:29.042Z,0
2017-10-03T01:46:31.460Z,0
2017-10-03T01:47:33.890Z,0
2017-10-03T01:48:36.326Z,0
2017-10-03T01:49:38.758Z,0
2017-10-03T01:50:41.524Z,0
2017-10-03T01:51:43.962Z,0
2017-10-03T01:52:47.060Z,0
2017-10-03T01:53:49.509Z,0
2017-10-03T01:54:51.930Z,0
2017-10-03T01:55:54.357Z,0
2017-10-03T01:56:56.786Z,0
2017-10-03T01:57:59.557Z,0
2017-10-03T01:59:02.352Z,0
2017-10-03T02:00:04.780Z,0
2017-10-03T02:01:07.213Z,0
2017-10-03T02:02:09.648Z,0
2017-10-03T02:03:12.084Z,0
2017-10-03T02:04:14.515Z,0
2017-10-03T02:05:16.935Z,0
2017-10-03T02:06:19.374Z,0
2017-10-03T02:07:21.803Z,0
2017-10-03T02:08:24.231Z,0
2017-10-03T02:09:26.659Z,0
2017-10-03T02:10:29.091Z,0
2017-10-03T02:11:31.515Z,0
2017-10-03T02:12:33.961Z,0
2017-10-03T02:13:36.381Z,0
2017-10-03T02:14:38.805Z,0
2017-10-03T02:15:41.241Z,0
2017-10-03T02:16:43.671Z,0
2017-10-03T02:17:46.098Z,0
2017-10-03T02:18:48.522Z,0
2017-10-03T02:19:50.963Z,0
2017-10-03T02:20:53.391Z,0
2017-10-03T02:21:55.816Z,0
2017-10-03T02:22:58.246Z,0
2017-10-03T02:24:00.669Z,0
2017-10-03T02:25:03.105Z,0
2017-10-03T02:26:05.900Z,0
2017-10-03T02:27:08.315Z,0
2017-10-03T02:28:11.117Z,0
2017-10-03T02:29:13.553Z,0
2017-10-03T02:30:15.985Z,0
2017-10-03T02:31:18.409Z,0
2017-10-03T02:32:20.846Z,0
2017-10-03T02:33:23.612Z,0
2017-10-03T02:34:26.041Z,0
2017-10-03T02:35:28.479Z,0
2017-10-03T02:36:30.895Z,0
2017-10-03T02:37:33.344Z,0
2017-10-03T02:38:36.124Z,0
2017-10-03T02:39:38.897Z,0
2017-10-03T02:40:41.326Z,0
2017-10-03T02:41:43.755Z,0
2017-10-03T02:42:46.182Z,0
2017-10-03T02:43:48.962Z,0
2017-10-03T02:44:51.738Z,0
2017-10-03T02:45:54.170Z,0
2017-10-03T02:46:56.602Z,0
2017-10-03T02:47:59.036Z,0
2017-10-03T02:49:01.472Z,0
2017-10-03T02:50:04.253Z,0
2017-10-03T02:51:06.673Z,0
2017-10-03T02:52:09.097Z,0
2017-10-03T02:53:11.539Z,0
2017-10-03T02:54:13.966Z,0
2017-10-03T02:55:16.405Z,0
2017-10-03T02:56:19.184Z,0
2017-10-03T02:57:21.613Z,0
2017-10-03T02:58:24.398Z,0
2017-10-03T02:59:26.836Z,0
2017-10-03T03:00:29.262Z,0
2017-10-03T03:01:31.692Z,0
2017-10-03T03:02:34.137Z,0
2017-10-03T03:03:36.563Z,0
2017-10-03T03:04:38.997Z,0
2017-10-03T03:05:41.422Z,0
2017-10-03T03:06:43.859Z,0
2017-10-03T03:07:46.286Z,0
2017-10-03T03:08:48.717Z,0
2017-10-03T03:09:51.143Z,0
2017-10-03T03:10:53.573Z,0
2017-10-03T03:11:56.010Z,0
2017-10-03T03:12:58.443Z,0
2017-10-03T03:14:00.873Z,0
2017-10-03T03:15:03.653Z,0
2017-10-03T03:16:06.082Z,0
2017-10-03T03:17:08.505Z,0
2017-10-03T03:18:10.946Z,0
2017-10-03T03:19:13.371Z,0
2017-10-03T03:20:16.137Z,0
2017-10-03T03:21:18.564Z,0
2017-10-03T03:22:20.993Z,0
2017-10-03T03:23:23.421Z,0
2017-10-03T03:24:25.868Z,0
2017-10-03T03:25:28.288Z,0
2017-10-03T03:26:30.715Z,0
2017-10-03T03:27:33.157Z,0
2017-10-03T03:28:35.581Z,0
2017-10-03T03:29:38.361Z,0
2017-10-03T03:30:40.794Z,0
2017-10-03T03:31:43.229Z,0
2017-10-03T03:32:45.657Z,0
2017-10-03T03:33:48.088Z,0
2017-10-03T03:34:51.221Z,0
2017-10-03T03:35:53.638Z,0
2017-10-03T03:36:56.079Z,0
2017-10-03T03:37:58.502Z,0
2017-10-03T03:39:00.937Z,0
2017-10-03T03:40:03.367Z,0
2017-10-03T03:41:05.802Z,0
2017-10-03T03:42:08.232Z,0
2017-10-03T03:43:10.665Z,0
2017-10-03T03:44:13.089Z,0
2017-10-03T03:45:15.510Z,0
2017-10-03T03:46:17.948Z,0
2017-10-03T03:47:20.373Z,0
2017-10-03T03:48:23.196Z,0
2017-10-03T03:49:25.626Z,0
2017-10-03T03:50:28.038Z,0
2017-10-03T03:51:30.473Z,0
2017-10-03T03:52:32.914Z,0
2017-10-03T03:53:35.341Z,0
2017-10-03T03:54:37.775Z,0
2017-10-03T03:55:40.208Z,0
2017-10-03T03:56:42.637Z,0
2017-10-03T03:57:45.068Z,0
2017-10-03T03:58:47.493Z,0
2017-10-03T03:59:49.916Z,0
2017-10-03T04:00:52.356Z,0
2017-10-03T04:01:54.775Z,0
2017-10-03T04:02:57.203Z,0
2017-10-03T04:03:59.634Z,0
2017-10-03T04:05:02.062Z,0
2017-10-03T04:06:04.491Z,0
2017-10-03T04:07:07.274Z,0
2017-10-03T04:08:09.704Z,0
2017-10-03T04:09:12.145Z,0
2017-10-03T04:10:14.567Z,0
2017-10-03T04:11:16.996Z,0
2017-10-03T04:12:19.421Z,0
2017-10-03T04:13:21.859Z,0
2017-10-03T04:14:24.276Z,0
2017-10-03T04:15:26.718Z,0
2017-10-03T04:16:29.152Z,0
2017-10-03T04:17:31.577Z,0
2017-10-03T04:18:34.013Z,0
2017-10-03T04:19:36.440Z,0
2017-10-03T04:20:38.870Z,0
2017-10-03T04:21:41.301Z,0
2017-10-03T04:22:43.730Z,0
2017-10-03T04:23:46.161Z,0
2017-10-03T04:24:48.587Z,0
2017-10-03T04:25:51.015Z,0
2017-10-03T04:26:53.445Z,0
2017-10-03T04:27:55.864Z,0
2017-10-03T04:28:58.289Z,0
2017-10-03T04:30:00.721Z,0
2017-10-03T04:31:03.145Z,0
2017-10-03T04:32:05.920Z,0
2017-10-03T04:33:08.345Z,0
2017-10-03T04:34:10.776Z,0
2017-10-03T04:35:13.218Z,0
2017-10-03T04:36:15.991Z,0
2017-10-03T04:37:18.420Z,0
2017-10-03T04:38:20.867Z,0
2017-10-03T04:39:23.288Z,0
2017-10-03T04:40:25.726Z,0
2017-10-03T04:41:28.160Z,0
2017-10-03T04:42:30.572Z,0
2017-10-03T04:43:33.350Z,0
2017-10-03T04:44:36.118Z,0
2017-10-03T04:45:38.549Z,0
2017-10-03T04:46:40.976Z,0
2017-10-03T04:47:43.411Z,0
2017-10-03T04:48:45.849Z,0
2017-10-03T04:49:48.268Z,0
2017-10-03T04:50:50.705Z,0
2017-10-03T04:51:53.133Z,0
2017-10-03T04:52:55.563Z,0
2017-10-03T04:53:57.997Z,0
2017-10-03T04:55:00.763Z,0
2017-10-03T04:56:03.190Z,0
2017-10-03T04:57:05.632Z,0
2017-10-03T04:58:08.052Z,0
2017-10-03T04:59:10.495Z,0
2017-10-03T05:00:12.922Z,0
2017-10-03T05:01:15.351Z,0
2017-10-03T05:02:17.787Z,0
2017-10-03T05:03:20.217Z,0
2017-10-03T05:04:22.646Z,0
2017-10-03T05:05:25.423Z,0
2017-10-03T05:06:27.900Z,0
2017-10-03T05:07:30.332Z,0
2017-10-03T05:08:32.780Z,0
2017-10-03T05:09:35.214Z,0
2017-10-03T05:10:37.639Z,0
2017-10-03T05:11:40.068Z,0
2017-10-03T05:12:42.513Z,1
2017-10-03T05:13:44.927Z,1
2017-10-03T05:14:47.358Z,1
2017-10-03T05:15:49.795Z,1
2017-10-03T05:16:52.233Z,1
2017-10-03T05:17:54.674Z,1
2017-10-03T05:18:57.100Z,1
2017-10-03T05:19:59.531Z,2
2017-10-03T05:21:01.967Z,2
2017-10-03T05:22:04.394Z,2
2017-10-03T05:23:06.817Z,2
2017-10-03T05:24:09.254Z,2
2017-10-03T05:25:12.022Z,3
2017-10-03T05:26:14.451Z,3
2017-10-03T05:27:17.230Z,3
2017-10-03T05:28:19.659Z,3
2017-10-03T05:29:22.422Z,3
2017-10-03T05:30:24.861Z,4
2017-10-03T05:31:27.292Z,4
2017-10-03T05:32:29.711Z,4
2017-10-03T05:33:32.150Z,5
2017-10-03T05:34:34.587Z,5
2017-10-03T05:35:37.010Z,5
2017-10-03T05:36:39.446Z,6
2017-10-03T05:37:41.876Z,6
2017-10-03T05:38:44.301Z,6
2017-10-03T05:39:46.746Z,6
2017-10-03T05:40:49.167Z,7
2017-10-03T05:41:51.603Z,7
2017-10-03T05:42:54.041Z,7
2017-10-03T05:43:56.469Z,8
2017-10-03T05:44:58.907Z,8
2017-10-03T05:46:01.329Z,8
2017-10-03T05:47:04.102Z,9
2017-10-03T05:48:06.535Z,9
2017-10-03T05:49:08.960Z,10
2017-10-03T05:50:11.739Z,11
2017-10-03T05:51:14.162Z,11
2017-10-03T05:52:16.598Z,11
2017-10-03T05:53:19.026Z,12
2017-10-03T05:54:21.460Z,12
2017-10-03T05:55:23.884Z,13
2017-10-03T05:56:33.376Z,13
2017-10-03T05:57:38.298Z,13
2017-10-03T05:58:40.733Z,13
2017-10-03T05:59:43.160Z,14
2017-10-03T06:00:45.924Z,15
2017-10-03T06:01:48.360Z,16
2017-10-03T06:02:50.794Z,17
2017-10-03T06:03:53.215Z,17
2017-10-03T06:04:55.655Z,18
2017-10-03T06:05:58.079Z,19
2017-10-03T06:07:00.857Z,19
2017-10-03T06:08:03.286Z,19
2017-10-03T06:09:05.721Z,20
2017-10-03T06:10:08.143Z,21
2017-10-03T06:11:10.582Z,21
2017-10-03T06:12:13.009Z,22
2017-10-03T06:13:15.423Z,22
2017-10-03T06:14:17.872Z,23
2017-10-03T06:15:20.297Z,23
2017-10-03T06:16:22.720Z,23
2017-10-03T06:17:25.145Z,24
2017-10-03T06:18:27.568Z,24
2017-10-03T06:19:29.991Z,24
2017-10-03T06:20:32.433Z,26
2017-10-03T06:21:35.205Z,27
2017-10-03T06:22:37.962Z,28
2017-10-03T06:23:40.393Z,28
2017-10-03T06:24:42.835Z,28
2017-10-03T06:25:45.258Z,28
2017-10-03T06:26:47.700Z,29
2017-10-03T06:27:50.125Z,31
2017-10-03T06:28:52.553Z,33
2017-10-03T06:29:55.000Z,32
2017-10-03T06:30:57.428Z,35
2017-10-03T06:32:00.199Z,39
2017-10-03T06:33:02.630Z,37
2017-10-03T06:34:05.059Z,40
2017-10-03T06:35:07.501Z,35
2017-10-03T06:36:09.932Z,37
2017-10-03T06:37:12.688Z,38
2017-10-03T06:38:15.127Z,38
2017-10-03T06:39:17.562Z,37
2017-10-03T06:40:19.993Z,37
2017-10-03T06:41:22.427Z,42
2017-10-03T06:42:25.199Z,37
2017-10-03T06:43:27.636Z,43
2017-10-03T06:44:30.064Z,42
2017-10-03T06:45:32.493Z,43
2017-10-03T06:46:34.939Z,42
2017-10-03T06:47:37.362Z,37
2017-10-03T06:48:39.780Z,35
2017-10-03T06:49:42.220Z,33
2017-10-03T06:50:44.661Z,33
2017-10-03T06:51:47.328Z,45
2017-10-03T06:52:50.613Z,48
2017-10-03T06:53:53.408Z,47
2017-10-03T06:54:55.938Z,52
2017-10-03T06:55:58.385Z,53
2017-10-03T06:57:00.808Z,53
2017-10-03T06:58:03.242Z,52
2017-10-03T06:59:05.676Z,49
2017-10-03T07:00:08.111Z,56
2017-10-03T07:01:10.543Z,58
2017-10-03T07:02:12.974Z,56
2017-10-03T07:03:15.393Z,62
2017-10-03T07:04:17.824Z,60
2017-10-03T07:05:20.259Z,64
2017-10-03T07:06:22.677Z,52
2017-10-03T07:07:25.118Z,59
2017-10-03T07:08:27.576Z,59
2017-10-03T07:09:30.015Z,66
2017-10-03T07:10:32.466Z,62
2017-10-03T07:11:34.893Z,51
2017-10-03T07:12:37.311Z,69
2017-10-03T07:13:39.755Z,67
2017-10-03T07:14:42.181Z,61
2017-10-03T07:15:44.618Z,67
2017-10-03T07:16:47.047Z,63
2017-10-03T07:17:49.485Z,82
2017-10-03T07:18:51.914Z,88
2017-10-03T07:19:54.352Z,64
2017-10-03T07:20:56.781Z,76
2017-10-03T07:21:59.208Z,100
2017-10-03T07:23:01.637Z,159
2017-10-03T07:24:04.068Z,89
2017-10-03T07:25:06.499Z,79
2017-10-03T07:26:08.929Z,62
2017-10-03T07:27:11.350Z,61
2017-10-03T07:28:14.135Z,55
2017-10-03T07:29:16.558Z,58
2017-10-03T07:30:18.988Z,56
2017-10-03T07:31:21.413Z,141
2017-10-03T07:32:23.841Z,83
2017-10-03T07:33:26.267Z,224
2017-10-03T07:34:28.721Z,232
2017-10-03T07:35:31.142Z,90
2017-10-03T07:36:33.568Z,118
2017-10-03T07:37:36.009Z,228
2017-10-03T07:38:38.436Z,205
2017-10-03T07:39:40.873Z,89
2017-10-03T07:40:43.300Z,232
2017-10-03T07:41:45.731Z,101
2017-10-03T07:42:48.158Z,251
2017-10-03T07:43:50.601Z,231
2017-10-03T07:44:53.033Z,191
2017-10-03T07:45:55.453Z,130
2017-10-03T07:46:57.890Z,105
2017-10-03T07:48:00.328Z,100
2017-10-03T07:49:02.758Z,283
2017-10-03T07:50:05.197Z,219
2017-10-03T07:51:07.630Z,82
2017-10-03T07:52:10.394Z,295
2017-10-03T07:53:12.847Z,104
2017-10-03T07:54:15.604Z,119
2017-10-03T07:55:18.046Z,94
2017-10-03T07:56:20.481Z,61
2017-10-03T07:57:22.911Z,68
2017-10-03T07:58:25.350Z,104
2017-10-03T07:59:27.778Z,131
2017-10-03T08:00:30.193Z,99
2017-10-03T08:01:32.633Z,289
2017-10-03T08:02:35.079Z,208
2017-10-03T08:03:37.516Z,157
2017-10-03T08:04:39.956Z,180
2017-10-03T08:05:42.389Z,203
2017-10-03T08:06:44.829Z,96
2017-10-03T08:07:47.273Z,201
2017-10-03T08:08:49.702Z,335
2017-10-03T08:09:52.142Z,263
2017-10-03T08:10:54.564Z,313
2017-10-03T08:11:57.009Z,118
2017-10-03T08:12:59.446Z,135
2017-10-03T08:14:01.884Z,94
2017-10-03T08:15:04.329Z,109
2017-10-03T08:16:07.104Z,382
2017-10-03T08:17:09.535Z,135
2017-10-03T08:18:11.979Z,103
2017-10-03T08:19:14.401Z,83
2017-10-03T08:20:16.838Z,73
2017-10-03T08:21:19.273Z,98
2017-10-03T08:22:21.714Z,149
2017-10-03T08:23:24.143Z,181
2017-10-03T08:24:26.575Z,125
2017-10-03T08:25:29.007Z,97
2017-10-03T08:26:31.453Z,73
2017-10-03T08:27:33.882Z,54
2017-10-03T08:28:36.319Z,57
2017-10-03T08:29:38.757Z,72
2017-10-03T08:30:41.195Z,63
2017-10-03T08:31:43.623Z,55
2017-10-03T08:32:46.077Z,54
2017-10-03T08:33:48.493Z,87
2017-10-03T08:34:50.932Z,126
2017-10-03T08:35:53.367Z,340
2017-10-03T08:36:55.802Z,102
2017-10-03T08:37:58.230Z,87
2017-10-03T08:39:00.663Z,100
2017-10-03T08:40:03.437Z,231
2017-10-03T08:41:06.211Z,203
2017-10-03T08:42:08.650Z,155
2017-10-03T08:43:11.078Z,134
2017-10-03T08:44:13.536Z,160
2017-10-03T08:45:15.956Z,83
2017-10-03T08:46:18.389Z,119
2017-10-03T08:47:20.826Z,196
2017-10-03T08:48:23.254Z,211
2017-10-03T08:49:26.038Z,137
2017-10-03T08:50:28.477Z,121
2017-10-03T08:51:30.907Z,99
2017-10-03T08:52:33.358Z,91
2017-10-03T08:53:35.788Z,77
2017-10-03T08:54:38.230Z,68
2017-10-03T08:55:41.354Z,72
2017-10-03T08:56:43.784Z,101
2017-10-03T08:57:46.223Z,153
2017-10-03T08:58:48.665Z,415
2017-10-03T08:59:51.084Z,107
2017-10-03T09:00:53.526Z,115
2017-10-03T09:01:55.955Z,152
2017-10-03T09:02:58.389Z,122
2017-10-03T09:04:00.862Z,115
2017-10-03T09:05:03.272Z,114
2017-10-03T09:06:06.056Z,176
2017-10-03T09:07:08.516Z,117
2017-10-03T09:08:10.943Z,93
2017-10-03T09:09:13.715Z,124
2017-10-03T09:10:16.154Z,138
2017-10-03T09:11:18.594Z,283
2017-10-03T09:12:21.024Z,380
2017-10-03T09:13:23.470Z,366
2017-10-03T09:14:25.906Z,158
2017-10-03T09:15:28.344Z,135
2017-10-03T09:16:30.778Z,110
2017-10-03T09:17:33.557Z,109
2017-10-03T09:18:35.997Z,106
2017-10-03T09:19:38.775Z,122
2017-10-03T09:20:41.202Z,132
2017-10-03T09:21:43.645Z,114
2017-10-03T09:22:46.078Z,173
2017-10-03T09:23:48.523Z,348
2017-10-03T09:24:50.953Z,167
2017-10-03T09:25:53.392Z,438
2017-10-03T09:26:55.832Z,202
2017-10-03T09:27:58.612Z,436
2017-10-03T09:29:01.052Z,287
2017-10-03T09:30:03.496Z,405
2017-10-03T09:31:05.918Z,350
2017-10-03T09:32:08.363Z,432
2017-10-03T09:33:10.807Z,271
2017-10-03T09:34:13.238Z,146
2017-10-03T09:35:15.682Z,214
2017-10-03T09:36:18.121Z,188
2017-10-03T09:37:20.555Z,240
2017-10-03T09:38:23.004Z,126
2017-10-03T09:39:25.431Z,99
2017-10-03T09:40:27.889Z,93
2017-10-03T09:41:30.320Z,79
2017-10-03T09:42:32.755Z,87
2017-10-03T09:43:35.196Z,90
2017-10-03T09:44:37.638Z,83
2017-10-03T09:45:40.418Z,108
2017-10-03T09:46:42.860Z,204
2017-10-03T09:47:45.295Z,125
2017-10-03T09:48:48.076Z,133
2017-10-03T09:49:50.526Z,124
2017-10-03T09:50:52.965Z,97
2017-10-03T09:51:55.400Z,111
2017-10-03T09:52:57.837Z,236
2017-10-03T09:54:00.270Z,441
2017-10-03T09:55:02.705Z,393
2017-10-03T09:56:05.150Z,331
2017-10-03T09:57:07.574Z,302
2017-10-03T09:58:10.011Z,229
2017-10-03T09:59:12.807Z,185
2017-10-03T10:00:15.245Z,131
2017-10-03T10:01:17.677Z,151
2017-10-03T10:02:20.124Z,138
2017-10-03T10:03:22.555Z,345
2017-10-03T10:04:24.995Z,174
2017-10-03T10:05:27.442Z,158
2017-10-03T10:06:29.884Z,306
2017-10-03T10:07:32.307Z,170
2017-10-03T10:08:35.085Z,369
2017-10-03T10:09:37.529Z,349
2017-10-03T10:10:39.963Z,244
2017-10-03T10:11:42.409Z,145
2017-10-03T10:12:44.845Z,179
2017-10-03T10:13:47.284Z,188
2017-10-03T10:14:49.725Z,236
2017-10-03T10:15:52.167Z,215
2017-10-03T10:16:54.603Z,262
2017-10-03T10:17:57.048Z,243
2017-10-03T10:18:59.488Z,265
2017-10-03T10:20:01.934Z,499
2017-10-03T10:21:04.365Z,582
2017-10-03T10:22:06.809Z,418
2017-10-03T10:23:09.242Z,543
2017-10-03T10:24:12.031Z,391
2017-10-03T10:25:14.466Z,243
2017-10-03T10:26:16.904Z,218
2017-10-03T10:27:19.347Z,208
2017-10-03T10:28:21.784Z,230
2017-10-03T10:29:24.219Z,197
2017-10-03T10:30:26.672Z,144
2017-10-03T10:31:29.445Z,107
2017-10-03T10:32:31.897Z,126
2017-10-03T10:33:34.334Z,420
2017-10-03T10:34:36.772Z,307
2017-10-03T10:35:39.209Z,171
2017-10-03T10:36:41.655Z,195
2017-10-03T10:37:44.103Z,150
2017-10-03T10:38:46.533Z,121
2017-10-03T10:39:48.984Z,110
2017-10-03T10:40:51.423Z,152
2017-10-03T10:41:53.866Z,129
2017-10-03T10:42:56.300Z,127
2017-10-03T10:43:58.750Z,165
2017-10-03T10:45:01.181Z,221
2017-10-03T10:46:03.634Z,170
2017-10-03T10:47:06.063Z,223
2017-10-03T10:48:08.510Z,255
2017-10-03T10:49:11.283Z,217
2017-10-03T10:50:13.723Z,429
2017-10-03T10:51:16.160Z,414
2017-10-03T10:52:18.598Z,307
2017-10-03T10:53:21.033Z,131
2017-10-03T10:54:23.482Z,125
2017-10-03T10:55:25.914Z,439
2017-10-03T10:56:28.359Z,110
2017-10-03T10:57:30.790Z,500
2017-10-03T10:58:33.588Z,128
2017-10-03T10:59:36.026Z,141
2017-10-03T11:00:38.466Z,184
2017-10-03T11:01:40.911Z,214
2017-10-03T11:02:43.345Z,475
2017-10-03T11:03:45.785Z,538
2017-10-03T11:04:48.254Z,578
2017-10-03T11:05:51.034Z,557
2017-10-03T11:06:53.482Z,544
2017-10-03T11:07:55.918Z,609
2017-10-03T11:08:58.363Z,194
2017-10-03T11:10:00.794Z,156
2017-10-03T11:11:03.246Z,165
2017-10-03T11:12:05.686Z,201
2017-10-03T11:13:08.123Z,110
2017-10-03T11:14:10.571Z,108
2017-10-03T11:15:13.009Z,142
2017-10-03T11:16:15.451Z,145
2017-10-03T11:17:17.894Z,125
2017-10-03T11:18:20.332Z,169
2017-10-03T11:19:22.776Z,175
2017-10-03T11:20:25.226Z,432
2017-10-03T11:21:27.663Z,386
2017-10-03T11:22:30.107Z,339
2017-10-03T11:23:32.553Z,217
2017-10-03T11:24:34.989Z,307
2017-10-03T11:25:37.774Z,536
2017-10-03T11:26:40.214Z,577
2017-10-03T11:27:42.655Z,547
2017-10-03T11:28:45.094Z,463
2017-10-03T11:29:47.537Z,463
2017-10-03T11:30:49.974Z,486
2017-10-03T11:31:52.412Z,245
2017-10-03T11:32:54.857Z,239
2017-10-03T11:33:57.295Z,141
2017-10-03T11:34:59.733Z,160
2017-10-03T11:36:02.514Z,456
2017-10-03T11:37:04.950Z,467
2017-10-03T11:38:07.401Z,310
2017-10-03T11:39:09.845Z,149
2017-10-03T11:40:12.287Z,239
2017-10-03T11:41:14.735Z,458
2017-10-03T11:42:17.177Z,448
2017-10-03T11:43:19.618Z,146
2017-10-03T11:44:22.069Z,243
2017-10-03T11:45:24.501Z,178
2017-10-03T11:46:26.955Z,389
2017-10-03T11:47:29.392Z,425
2017-10-03T11:48:31.841Z,385
2017-10-03T11:49:34.628Z,126
2017-10-03T11:50:37.077Z,138
2017-10-03T11:51:39.514Z,356
2017-10-03T11:52:41.972Z,393
2017-10-03T11:53:44.411Z,378
2017-10-03T11:54:46.855Z,293
2017-10-03T11:55:49.313Z,241
2017-10-03T11:56:51.753Z,175
2017-10-03T11:57:54.195Z,434
2017-10-03T11:58:56.625Z,363
2017-10-03T11:59:59.070Z,404
2017-10-03T12:01:01.512Z,547
2017-10-03T12:02:03.954Z,571
2017-10-03T12:03:06.392Z,251
2017-10-03T12:04:08.843Z,169
2017-10-03T12:05:11.295Z,195
2017-10-03T12:06:13.745Z,124
2017-10-03T12:07:16.187Z,104
2017-10-03T12:08:18.640Z,107
2017-10-03T12:09:21.082Z,107
2017-10-03T12:10:23.516Z,124
2017-10-03T12:11:25.970Z,136
2017-10-03T12:12:28.411Z,153
2017-10-03T12:13:30.861Z,155
2017-10-03T12:14:33.296Z,139
2017-10-03T12:15:35.742Z,113
2017-10-03T12:16:38.177Z,147
2017-10-03T12:17:40.634Z,173
2017-10-03T12:18:43.063Z,161
2017-10-03T12:19:45.832Z,208
2017-10-03T12:20:48.277Z,143
2017-10-03T12:21:50.715Z,120
2017-10-03T12:22:53.159Z,121
2017-10-03T12:23:55.599Z,135
2017-10-03T12:24:58.042Z,113
2017-10-03T12:26:00.478Z,297
2017-10-03T12:27:02.922Z,166
2017-10-03T12:28:05.357Z,234
2017-10-03T12:29:07.794Z,374
2017-10-03T12:30:10.234Z,477
2017-10-03T12:31:12.669Z,454
2017-10-03T12:32:15.116Z,406
2017-10-03T12:33:17.555Z,401
2017-10-03T12:34:19.993Z,229
2017-10-03T12:35:22.467Z,421
2017-10-03T12:36:24.902Z,421
2017-10-03T12:37:27.348Z,408
2017-10-03T12:38:29.783Z,418
2017-10-03T12:39:32.223Z,373
2017-10-03T12:40:34.670Z,321
2017-10-03T12:41:37.100Z,366
2017-10-03T12:42:39.544Z,380
2017-10-03T12:43:41.994Z,453
2017-10-03T12:44:44.423Z,133
2017-10-03T12:45:46.872Z,252
2017-10-03T12:46:49.311Z,185
2017-10-03T12:47:57.754Z,156
2017-10-03T12:49:05.607Z,153
2017-10-03T12:50:13.931Z,136
2017-10-03T12:51:24.641Z,132
2017-10-03T12:52:31.292Z,129
2017-10-03T12:53:47.440Z,161
2017-10-03T12:54:55.121Z,274
2017-10-03T12:56:04.496Z,242
2017-10-03T12:57:11.312Z,326
2017-10-03T12:58:16.187Z,158
2017-10-03T12:59:20.041Z,171
2017-10-03T13:00:24.098Z,184
2017-10-03T13:01:30.114Z,200
2017-10-03T13:02:36.192Z,238
2017-10-03T13:03:44.503Z,182
2017-10-03T13:04:47.816Z,112
2017-10-03T13:05:52.770Z,104
2017-10-03T13:06:58.347Z,86
2017-10-03T13:08:01.841Z,81
2017-10-03T13:09:05.570Z,87
2017-10-03T13:10:08.362Z,96
2017-10-03T13:11:11.207Z,106
2017-10-03T13:12:13.644Z,117
2017-10-03T13:13:16.088Z,118
2017-10-03T13:14:18.536Z,116
2017-10-03T13:15:20.986Z,110
2017-10-03T13:16:23.422Z,107
2017-10-03T13:17:25.860Z,108
2017-10-03T13:18:28.303Z,118
2017-10-03T13:19:30.746Z,136
2017-10-03T13:20:33.175Z,239
2017-10-03T13:21:35.621Z,254
2017-10-03T13:22:38.063Z,268
2017-10-03T13:23:40.498Z,251
2017-10-03T13:24:42.947Z,241
2017-10-03T13:25:45.376Z,246
2017-10-03T13:26:47.810Z,217
2017-10-03T13:27:50.281Z,215
2017-10-03T13:28:52.712Z,149
2017-10-03T13:29:55.144Z,119
2017-10-03T13:30:57.587Z,75
2017-10-03T13:32:00.029Z,91
2017-10-03T13:33:02.476Z,93
2017-10-03T13:34:04.923Z,156
2017-10-03T13:35:07.354Z,156
2017-10-03T13:36:09.801Z,222
2017-10-03T13:37:12.250Z,204
2017-10-03T13:38:15.036Z,189
2017-10-03T13:39:17.462Z,198
2017-10-03T13:40:19.908Z,180
2017-10-03T13:41:22.350Z,188
2017-10-03T13:42:25.134Z,114
2017-10-03T13:43:27.573Z,110
2017-10-03T13:44:30.020Z,118
2017-10-03T13:45:32.465Z,116
2017-10-03T13:46:35.237Z,111
2017-10-03T13:47:37.677Z,111
2017-10-03T13:48:40.118Z,116
2017-10-03T13:49:42.550Z,129
2017-10-03T13:50:44.994Z,101
2017-10-03T13:51:47.432Z,167
2017-10-03T13:52:49.881Z,129
2017-10-03T13:53:52.321Z,153
2017-10-03T13:54:54.767Z,117
2017-10-03T13:55:57.219Z,154
2017-10-03T13:56:59.712Z,153
2017-10-03T13:58:02.151Z,94
2017-10-03T13:59:04.611Z,93
2017-10-03T14:00:07.054Z,89
2017-10-03T14:01:09.830Z,135
2017-10-03T14:02:12.283Z,83
2017-10-03T14:03:14.710Z,84
2017-10-03T14:04:17.152Z,108
2017-10-03T14:05:19.602Z,144
2017-10-03T14:06:22.046Z,148
2017-10-03T14:07:24.489Z,122
2017-10-03T14:08:26.939Z,122
2017-10-03T14:09:29.376Z,99
2017-10-03T14:10:31.819Z,99
2017-10-03T14:11:34.259Z,99
2017-10-03T14:12:36.712Z,96
2017-10-03T14:13:39.152Z,89
2017-10-03T14:14:41.599Z,92
2017-10-03T14:15:44.043Z,107
2017-10-03T14:16:46.828Z,85
2017-10-03T14:17:49.277Z,86
2017-10-03T14:18:51.724Z,83
2017-10-03T14:19:54.486Z,83
2017-10-03T14:20:56.943Z,109
2017-10-03T14:21:59.381Z,151
2017-10-03T14:23:01.826Z,162
2017-10-03T14:24:04.274Z,163
2017-10-03T14:25:06.730Z,171
2017-10-03T14:26:09.191Z,112
2017-10-03T14:27:11.647Z,152
2017-10-03T14:28:14.105Z,126
2017-10-03T14:29:16.569Z,154
2017-10-03T14:30:19.015Z,172
2017-10-03T14:31:21.462Z,179
2017-10-03T14:32:23.895Z,175
2017-10-03T14:33:26.340Z,163
2017-10-03T14:34:28.776Z,169
2017-10-03T14:35:31.217Z,176
2017-10-03T14:36:33.670Z,153
2017-10-03T14:37:36.113Z,107
2017-10-03T14:38:38.896Z,76
2017-10-03T14:39:41.688Z,52
2017-10-03T14:40:44.133Z,50
2017-10-03T14:41:46.578Z,49
2017-10-03T14:42:49.015Z,49
2017-10-03T14:43:51.471Z,48
2017-10-03T14:44:53.902Z,48
2017-10-03T14:45:56.349Z,45
2017-10-03T14:46:58.802Z,49
2017-10-03T14:48:01.236Z,46
2017-10-03T14:49:03.683Z,45
2017-10-03T14:50:06.133Z,47
2017-10-03T14:51:08.900Z,53